createdAt,value
2019-06-26T00:00:02.088Z,6.92
2019-06-26T00:02:32.670Z,6.80
2019-06-26T00:05:03.220Z,6.40
2019-06-26T00:07:33.804Z,6.15
2019-06-26T00:10:04.345Z,6.78
2019-06-26T00:12:34.911Z,6.58
2019-06-26T00:15:05.746Z,7.08
2019-06-26T00:17:36.310Z,7.75
2019-06-26T00:20:07.203Z,8.07
2019-06-26T00:22:37.837Z,7.20
2019-06-26T00:25:08.951Z,7.28
2019-06-26T00:27:39.537Z,7.20
2019-06-26T00:30:10.530Z,7.60
2019-06-26T00:32:41.084Z,7.70
2019-06-26T00:35:11.644Z,7.83
2019-06-26T00:37:42.190Z,8.43
2019-06-26T00:40:12.775Z,7.42
2019-06-26T00:42:43.281Z,7.00
2019-06-26T00:45:14.161Z,7.22
2019-06-26T00:47:44.667Z,7.65
2019-06-26T00:50:16.612Z,8.10
2019-06-26T00:52:47.217Z,7.30
2019-06-26T00:55:17.777Z,7.15
2019-06-26T00:57:48.279Z,7.20
2019-06-26T01:00:19.224Z,7.10
2019-06-26T01:02:49.810Z,7.35
2019-06-26T01:05:20.290Z,7.50
2019-06-26T01:07:50.868Z,7.90
2019-06-26T01:10:22.723Z,7.67
2019-06-26T01:12:53.262Z,7.80
2019-06-26T01:15:23.838Z,8.05
2019-06-26T01:17:54.341Z,8.40
2019-06-26T01:20:24.862Z,8.88
2019-06-26T01:22:55.395Z,8.50
2019-06-26T01:25:25.955Z,7.80
2019-06-26T01:27:56.462Z,8.65
2019-06-26T01:30:27.097Z,8.30
2019-06-26T01:32:57.611Z,8.85
2019-06-26T01:35:28.208Z,8.60
2019-06-26T01:37:58.797Z,8.10
2019-06-26T01:40:29.290Z,7.75
2019-06-26T01:42:59.856Z,7.97
2019-06-26T01:45:30.494Z,7.85
2019-06-26T01:48:00.992Z,7.45
2019-06-26T01:50:31.515Z,7.78
2019-06-26T01:53:02.075Z,7.70
2019-06-26T01:55:32.606Z,7.97
2019-06-26T01:58:03.146Z,7.78
2019-06-26T02:00:33.702Z,7.87
2019-06-26T02:03:04.249Z,8.00
2019-06-26T02:05:34.769Z,7.85
2019-06-26T02:08:05.278Z,8.00
2019-06-26T02:10:35.817Z,7.95
2019-06-26T02:13:06.313Z,8.20
2019-06-26T02:15:36.898Z,8.05
2019-06-26T02:18:09.030Z,8.25
2019-06-26T02:20:39.573Z,8.50
2019-06-26T02:23:10.216Z,7.40
2019-06-26T02:25:40.707Z,8.08
2019-06-26T02:28:11.216Z,8.48
2019-06-26T02:30:41.773Z,8.27
2019-06-26T02:33:12.266Z,7.80
2019-06-26T02:35:42.752Z,7.78
2019-06-26T02:38:13.324Z,8.40
2019-06-26T02:40:43.832Z,9.33
2019-06-26T02:43:14.297Z,7.28
2019-06-26T02:45:44.878Z,8.20
2019-06-26T02:48:15.313Z,8.80
2019-06-26T02:50:45.798Z,8.27
2019-06-26T02:53:16.329Z,7.53
2019-06-26T02:55:46.894Z,8.58
2019-06-26T02:58:17.398Z,7.85
2019-06-26T03:00:47.935Z,8.45
2019-06-26T03:03:18.486Z,8.25
2019-06-26T03:05:49.074Z,9.05
2019-06-26T03:08:19.642Z,9.40
2019-06-26T03:10:50.206Z,8.43
2019-06-26T03:13:20.765Z,9.18
2019-06-26T03:15:51.334Z,8.70
2019-06-26T03:18:22.728Z,9.18
2019-06-26T03:20:56.723Z,8.70
2019-06-26T03:23:27.421Z,8.80
2019-06-26T03:25:58.064Z,9.58
2019-06-26T03:28:28.580Z,8.83
2019-06-26T03:30:59.074Z,9.63
2019-06-26T03:33:29.527Z,9.20
2019-06-26T03:36:00.036Z,9.10
2019-06-26T03:38:30.648Z,8.70
2019-06-26T03:41:01.166Z,9.35
2019-06-26T03:43:35.339Z,9.78
2019-06-26T03:46:04.317Z,10.48
2019-06-26T03:48:35.478Z,10.08
2019-06-26T03:51:06.007Z,10.80
2019-06-26T03:53:36.523Z,10.30
2019-06-26T03:56:07.050Z,9.50
2019-06-26T03:58:37.542Z,9.58
2019-06-26T04:01:08.794Z,9.80
2019-06-26T04:03:39.496Z,9.78
2019-06-26T04:06:10.195Z,10.40
2019-06-26T04:08:40.715Z,10.40
2019-06-26T04:11:11.341Z,10.00
2019-06-26T04:13:41.875Z,10.38
2019-06-26T04:16:12.396Z,10.00
2019-06-26T04:18:42.971Z,10.00
2019-06-26T04:21:13.625Z,10.35
2019-06-26T04:23:44.135Z,11.12
2019-06-26T04:26:14.657Z,10.25
2019-06-26T04:28:45.263Z,10.40
2019-06-26T04:31:15.782Z,11.10
2019-06-26T04:33:46.265Z,10.48
2019-06-26T04:36:16.837Z,10.18
2019-06-26T04:38:47.348Z,10.32
2019-06-26T04:41:17.853Z,10.08
2019-06-26T04:43:48.486Z,10.98
2019-06-26T04:46:19.087Z,11.60
2019-06-26T04:48:49.606Z,10.40
2019-06-26T04:51:20.148Z,10.45
2019-06-26T04:53:50.616Z,11.48
2019-06-26T04:56:21.115Z,10.20
2019-06-26T04:58:52.090Z,10.35
2019-06-26T05:01:22.807Z,9.20
2019-06-26T05:03:53.369Z,9.98
2019-06-26T05:06:23.927Z,10.70
2019-06-26T05:08:54.438Z,9.05
2019-06-26T05:11:24.961Z,10.30
2019-06-26T05:13:55.506Z,9.43
2019-06-26T05:16:26.049Z,10.00
2019-06-26T05:18:56.553Z,9.50
2019-06-26T05:21:27.101Z,9.30
2019-06-26T05:23:57.512Z,9.10
2019-06-26T05:26:28.013Z,9.08
2019-06-26T05:28:58.555Z,8.80
2019-06-26T05:31:29.138Z,9.40
2019-06-26T05:33:59.641Z,9.10
2019-06-26T05:36:30.201Z,9.20
2019-06-26T05:39:00.716Z,8.60
2019-06-26T05:41:31.249Z,9.00
2019-06-26T05:44:02.031Z,9.28
2019-06-26T05:46:32.627Z,8.90
2019-06-26T05:49:03.198Z,9.38
2019-06-26T05:51:33.802Z,8.93
2019-06-26T05:54:04.476Z,10.13
2019-06-26T05:56:35.006Z,9.68
2019-06-26T05:59:05.710Z,8.60
2019-06-26T06:01:36.224Z,9.75
2019-06-26T06:04:06.768Z,9.10
2019-06-26T06:06:41.848Z,9.60
2019-06-26T06:09:09.716Z,10.20
2019-06-26T06:11:40.343Z,10.63
2019-06-26T06:14:10.886Z,9.55
2019-06-26T06:16:47.193Z,10.68
2019-06-26T06:19:13.652Z,10.20
2019-06-26T06:21:44.146Z,9.95
2019-06-26T06:24:14.637Z,9.60
2019-06-26T06:26:45.133Z,9.68
2019-06-26T06:29:15.669Z,11.10
2019-06-26T06:31:46.157Z,10.10
2019-06-26T06:34:16.667Z,10.43
2019-06-26T06:36:47.204Z,9.20
2019-06-26T06:39:17.711Z,10.23
2019-06-26T06:41:48.175Z,10.30
2019-06-26T06:44:18.715Z,10.97
2019-06-26T06:47:02.687Z,9.97
2019-06-26T06:49:21.402Z,10.20
2019-06-26T06:51:51.938Z,10.00
2019-06-26T06:54:22.506Z,8.35
2019-06-26T06:56:53.045Z,8.53
2019-06-26T06:59:23.575Z,8.57
2019-06-26T07:01:54.086Z,8.80
2019-06-26T07:04:24.672Z,8.20
2019-06-26T07:06:58.647Z,8.35
2019-06-26T07:09:27.713Z,8.05
2019-06-26T07:11:58.284Z,7.80
2019-06-26T07:14:28.839Z,8.20
2019-06-26T07:17:01.562Z,8.40
2019-06-26T07:19:31.799Z,8.90
2019-06-26T07:22:02.479Z,8.03
2019-06-26T07:24:33.050Z,8.55
2019-06-26T07:27:03.639Z,7.03
2019-06-26T07:29:34.296Z,7.97
2019-06-26T07:32:04.834Z,7.80
2019-06-26T07:34:35.502Z,8.40
2019-06-26T07:37:06.183Z,8.00
2019-06-26T07:39:36.787Z,7.37
2019-06-26T07:42:07.357Z,7.45
2019-06-26T07:44:38.003Z,8.10
2019-06-26T07:47:22.483Z,7.03
2019-06-26T07:49:40.978Z,7.20
2019-06-26T07:52:11.625Z,7.87
2019-06-26T07:54:42.215Z,8.20
2019-06-26T07:57:12.748Z,7.17
2019-06-26T07:59:43.231Z,6.42
2019-06-26T08:02:13.812Z,6.70
2019-06-26T08:04:44.435Z,5.90
2019-06-26T08:07:16.581Z,6.60
2019-06-26T08:09:47.212Z,6.83
2019-06-26T08:12:17.759Z,6.60
2019-06-26T08:14:48.349Z,6.10
2019-06-26T08:17:18.848Z,6.67
2019-06-26T08:19:49.374Z,7.53
2019-06-26T08:22:19.822Z,8.38
2019-06-26T08:24:50.488Z,6.50
2019-06-26T08:27:20.992Z,7.00
2019-06-26T08:29:51.534Z,7.35
2019-06-26T08:32:25.756Z,6.95
2019-06-26T08:34:54.292Z,6.65
2019-06-26T08:37:24.903Z,6.90
2019-06-26T08:39:55.467Z,5.83
2019-06-26T08:42:26.018Z,5.55
2019-06-26T08:44:58.436Z,5.87
2019-06-26T08:47:28.923Z,5.45
2019-06-26T08:49:59.418Z,6.03
2019-06-26T08:52:29.967Z,5.53
2019-06-26T08:55:00.460Z,5.60
2019-06-26T08:57:30.954Z,5.83
2019-06-26T09:00:01.571Z,6.10
2019-06-26T09:02:32.005Z,5.60
2019-06-26T09:05:02.511Z,5.50
2019-06-26T09:07:33.098Z,4.60
2019-06-26T09:10:03.857Z,6.15
2019-06-26T09:12:34.397Z,6.40
2019-06-26T09:15:04.975Z,5.17
2019-06-26T09:17:35.627Z,5.30
2019-06-26T09:20:07.167Z,5.93
2019-06-26T09:22:37.689Z,7.20
2019-06-26T09:25:20.699Z,6.15
2019-06-26T09:27:40.967Z,6.25
2019-06-26T09:30:11.887Z,6.47
2019-06-26T09:32:42.386Z,6.37
2019-06-26T09:35:12.945Z,9.23
2019-06-26T09:37:43.433Z,7.65
2019-06-26T09:40:14.325Z,7.10
2019-06-26T09:42:44.896Z,6.75
2019-06-26T09:45:15.736Z,7.22
2019-06-26T09:47:46.225Z,6.58
2019-06-26T09:50:17.662Z,8.08
2019-06-26T09:52:48.145Z,7.65
2019-06-26T09:55:19.245Z,7.62
2019-06-26T09:57:49.772Z,7.35
2019-06-26T10:00:22.407Z,7.15
2019-06-26T10:02:52.890Z,6.35
2019-06-26T10:05:23.429Z,6.05
2019-06-26T10:07:54.064Z,6.60
2019-06-26T10:10:24.643Z,6.00
2019-06-26T10:12:56.050Z,7.62
2019-06-26T10:15:26.791Z,6.00
2019-06-26T10:17:57.316Z,6.73
2019-06-26T10:20:27.838Z,5.90
2019-06-26T10:22:58.391Z,6.00
2019-06-26T10:25:28.852Z,7.00
2019-06-26T10:27:59.340Z,6.62
2019-06-26T10:30:29.894Z,5.25
2019-06-26T10:33:00.397Z,5.83
2019-06-26T10:35:30.996Z,5.20
2019-06-26T10:38:01.709Z,4.40
2019-06-26T10:40:32.298Z,4.90
2019-06-26T10:43:02.874Z,4.90
2019-06-26T10:45:36.020Z,5.20
2019-06-26T10:48:05.975Z,4.67
2019-06-26T10:50:47.971Z,4.50
2019-06-26T10:53:08.813Z,4.47
2019-06-26T10:55:39.359Z,5.10
2019-06-26T10:58:09.843Z,4.62
2019-06-26T11:00:40.379Z,5.10
2019-06-26T11:03:10.875Z,4.55
2019-06-26T11:05:42.997Z,4.62
2019-06-26T11:08:13.697Z,4.85
2019-06-26T11:10:44.425Z,4.45
2019-06-26T11:13:14.968Z,4.47
2019-06-26T11:15:45.503Z,4.20
2019-06-26T11:18:16.007Z,3.80
2019-06-26T11:20:46.486Z,4.15
2019-06-26T11:23:16.995Z,4.50
2019-06-26T11:25:47.459Z,4.60
2019-06-26T11:28:18.050Z,5.03
2019-06-26T11:30:48.561Z,4.67
2019-06-26T11:33:19.060Z,4.60
2019-06-26T11:35:49.518Z,3.90
2019-06-26T11:38:20.030Z,4.12
2019-06-26T11:40:50.529Z,3.72
2019-06-26T11:43:21.095Z,3.77
2019-06-26T11:45:51.691Z,4.28
2019-06-26T11:48:22.215Z,4.70
2019-06-26T11:50:52.787Z,4.17
2019-06-26T11:53:23.310Z,4.03
2019-06-26T11:55:53.808Z,3.90
2019-06-26T11:58:24.324Z,4.47
2019-06-26T12:00:55.096Z,4.43
2019-06-26T12:03:25.581Z,4.17
2019-06-26T12:06:12.009Z,4.60
2019-06-26T12:08:28.413Z,4.37
2019-06-26T12:10:58.864Z,4.03
2019-06-26T12:13:29.420Z,4.90
2019-06-26T12:15:59.994Z,4.75
2019-06-26T12:18:30.495Z,5.50
2019-06-26T12:21:01.011Z,4.90
2019-06-26T12:23:31.521Z,5.10
2019-06-26T12:26:02.110Z,5.42
2019-06-26T12:28:32.606Z,4.90
2019-06-26T12:31:03.161Z,5.20
2019-06-26T12:33:33.710Z,4.70
2019-06-26T12:36:04.662Z,5.08
2019-06-26T12:38:35.207Z,5.20
2019-06-26T12:41:05.873Z,4.70
2019-06-26T12:43:36.401Z,4.10
2019-06-26T12:46:06.965Z,4.57
2019-06-26T12:48:37.502Z,4.30
2019-06-26T12:51:08.030Z,4.30
2019-06-26T12:53:38.959Z,4.03
2019-06-26T12:56:09.501Z,4.60
2019-06-26T12:58:40.020Z,4.53
2019-06-26T13:01:10.630Z,4.57
2019-06-26T13:03:41.113Z,4.63
2019-06-26T13:06:11.675Z,4.57
2019-06-26T13:08:42.195Z,4.50
2019-06-26T13:11:12.712Z,4.60
2019-06-26T13:13:43.166Z,4.00
2019-06-26T13:16:21.201Z,4.47
2019-06-26T13:18:51.767Z,4.70
2019-06-26T13:21:23.187Z,3.67
2019-06-26T13:23:56.394Z,4.60
2019-06-26T13:26:26.922Z,5.23
2019-06-26T13:28:57.421Z,5.67
2019-06-26T13:31:27.971Z,4.93
2019-06-26T13:33:58.397Z,5.47
2019-06-26T13:36:28.849Z,5.37
2019-06-26T14:06:26.277Z,4.37
2019-06-26T14:08:57.180Z,3.90
2019-06-26T14:11:27.655Z,4.83
2019-06-26T14:13:58.137Z,4.73
2019-06-26T14:16:29.886Z,3.50
2019-06-26T14:19:00.713Z,3.43
2019-06-26T20:53:22.024Z,1.40
2019-06-26T20:55:52.656Z,2.70
2019-06-26T20:58:23.261Z,2.70
2019-06-26T21:00:53.993Z,2.60
2019-06-26T21:03:24.593Z,2.50
2019-06-26T21:05:58.270Z,2.07
2019-06-26T21:08:29.650Z,2.25
2019-06-26T21:11:00.429Z,2.20
2019-06-26T21:13:33.659Z,2.43
2019-06-26T21:16:05.441Z,2.77
2019-06-26T21:18:35.957Z,2.20
2019-06-26T21:21:06.455Z,2.95
2019-06-26T21:23:37.062Z,2.83
2019-06-26T21:26:07.617Z,3.02
2019-06-26T21:28:37.966Z,3.22
2019-06-26T21:31:08.535Z,2.75
2019-06-26T21:33:39.066Z,3.62
2019-06-26T21:36:09.465Z,2.72
2019-06-26T21:38:40.009Z,2.20
2019-06-26T21:41:10.520Z,2.87
2019-06-26T21:43:41.003Z,2.30
2019-06-26T21:46:11.508Z,2.47
2019-06-26T21:48:42.017Z,2.30
2019-06-26T21:51:12.514Z,2.67
2019-06-26T21:53:43.021Z,3.00
2019-06-26T21:56:13.514Z,2.27
2019-06-26T21:58:44.007Z,3.00
2019-06-26T22:01:14.578Z,2.20
2019-06-26T22:03:45.097Z,2.60
2019-06-26T22:06:15.730Z,2.50
2019-06-26T22:08:46.307Z,2.65
2019-06-26T22:11:16.892Z,2.47
2019-06-26T22:13:47.397Z,2.40
2019-06-26T22:16:17.954Z,2.90
2019-06-26T22:18:48.487Z,2.70
2019-06-26T22:21:18.999Z,2.30
2019-06-26T22:23:49.545Z,2.90
2019-06-26T22:26:20.050Z,2.90
2019-06-26T22:28:50.580Z,3.25
2019-06-26T22:31:21.135Z,3.42
2019-06-26T22:33:51.594Z,3.40
2019-06-26T22:36:22.108Z,3.22
2019-06-26T22:38:52.657Z,3.05
2019-06-26T22:41:23.226Z,3.95
2019-06-26T22:43:53.700Z,3.90
2019-06-26T22:46:24.218Z,3.20
2019-06-26T22:48:54.727Z,3.43
2019-06-26T22:51:25.455Z,3.20
2019-06-26T22:53:55.987Z,3.70
2019-06-26T22:56:26.694Z,2.00
2019-06-26T22:58:57.159Z,2.40
2019-06-26T23:01:27.682Z,2.20
2019-06-26T23:03:58.169Z,2.37
2019-06-26T23:06:28.607Z,2.58
2019-06-26T23:08:59.176Z,2.65
2019-06-26T23:11:29.693Z,2.35
2019-06-26T23:14:00.197Z,2.30
2019-06-26T23:16:30.686Z,2.00
2019-06-26T23:19:01.347Z,2.70
2019-06-26T23:21:31.860Z,3.12
2019-06-26T23:24:02.395Z,2.60
2019-06-26T23:26:32.922Z,3.00
2019-06-26T23:29:03.435Z,2.62
2019-06-26T23:31:33.983Z,2.73
2019-06-26T23:34:04.524Z,2.50
2019-06-26T23:36:35.063Z,2.20
2019-06-26T23:39:06.290Z,2.60
2019-06-26T23:41:36.789Z,3.00
2019-06-26T23:44:07.254Z,3.15
2019-06-26T23:46:37.819Z,3.45
2019-06-26T23:49:08.392Z,2.70
2019-06-26T23:51:38.923Z,2.90
2019-06-26T23:54:09.506Z,2.80
2019-06-26T23:56:41.025Z,3.10
2019-06-26T23:59:11.566Z,2.98
